createdAt,value
2019-03-06T00:00:30.925Z,49.71
2019-03-06T00:02:56.977Z,50.81
2019-03-06T00:05:22.973Z,50.78
2019-03-06T00:07:49.260Z,50.12
2019-03-06T00:10:22.161Z,50.12
2019-03-06T00:12:48.052Z,49.75
2019-03-06T00:15:14.283Z,49.87
2019-03-06T00:17:40.439Z,49.96
2019-03-06T00:20:06.453Z,50.32
2019-03-06T00:22:32.484Z,50.69
2019-03-06T00:24:58.409Z,50.76
2019-03-06T00:27:24.401Z,50.65
2019-03-06T00:29:50.511Z,50.17
2019-03-06T00:32:16.440Z,49.57
2019-03-06T00:34:42.364Z,48.74
2019-03-06T00:37:08.561Z,48.67
2019-03-06T00:39:36.490Z,48.22
2019-03-06T00:42:02.480Z,48.16
2019-03-06T00:44:28.438Z,48.50
2019-03-06T00:46:54.332Z,48.88
2019-03-06T00:49:20.333Z,48.82
2019-03-06T00:51:46.359Z,48.34
2019-03-06T00:54:12.287Z,48.37
2019-03-06T00:56:38.460Z,48.42
2019-03-06T00:59:04.314Z,48.35
2019-03-06T01:01:30.225Z,48.76
2019-03-06T01:03:56.224Z,49.44
2019-03-06T01:06:22.176Z,50.16
2019-03-06T01:08:48.258Z,49.97
2019-03-06T01:11:14.224Z,50.41
2019-03-06T01:13:40.275Z,50.35
2019-03-06T01:16:06.172Z,50.36
2019-03-06T01:18:32.133Z,50.41
2019-03-06T01:20:57.953Z,50.74
2019-03-06T01:23:24.343Z,50.19
2019-03-06T01:25:50.176Z,50.33
2019-03-06T01:28:16.099Z,50.73
2019-03-06T01:30:42.204Z,51.04
2019-03-06T01:33:15.827Z,50.91
2019-03-06T01:36:02.299Z,51.21
2019-03-06T01:38:42.211Z,51.48
2019-03-06T01:41:10.182Z,51.04
2019-03-06T01:43:46.958Z,51.27
2019-03-06T01:46:12.930Z,51.29
2019-03-06T01:48:38.926Z,51.23
2019-03-06T01:51:04.809Z,51.41
2019-03-06T01:53:30.961Z,51.47
2019-03-06T01:55:56.982Z,51.54
2019-03-06T01:58:23.249Z,51.47
2019-03-06T02:00:49.227Z,51.29
2019-03-06T02:03:15.365Z,51.35
2019-03-06T02:05:41.413Z,51.57
2019-03-06T02:08:08.089Z,51.63
2019-03-06T02:10:34.057Z,51.29
2019-03-06T02:13:00.327Z,51.45
2019-03-06T02:15:26.319Z,51.51
2019-03-06T02:17:52.375Z,51.36
2019-03-06T02:20:18.355Z,51.55
2019-03-06T02:22:44.764Z,51.73
2019-03-06T02:25:11.033Z,51.96
2019-03-06T02:27:36.964Z,52.37
2019-03-06T02:30:09.656Z,52.41
2019-03-06T02:32:35.641Z,52.61
2019-03-06T02:35:01.691Z,52.56
2019-03-06T02:37:27.640Z,52.62
2019-03-06T02:39:53.502Z,52.56
2019-03-06T02:42:19.343Z,52.64
2019-03-06T02:44:45.320Z,52.28
2019-03-06T02:47:11.156Z,51.66
2019-03-06T02:49:37.152Z,51.55
2019-03-06T02:52:03.234Z,51.80
2019-03-06T02:54:29.075Z,51.85
2019-03-06T02:56:55.006Z,51.67
2019-03-06T02:59:22.888Z,51.69
2019-03-06T03:01:50.744Z,51.95
2019-03-06T03:04:18.611Z,51.97
2019-03-06T03:06:49.079Z,51.74
2019-03-06T03:09:16.825Z,51.80
2019-03-06T03:11:42.985Z,52.09
2019-03-06T03:14:09.125Z,52.43
2019-03-06T03:16:34.959Z,52.62
2019-03-06T03:19:01.181Z,52.76
2019-03-06T03:21:27.201Z,52.60
2019-03-06T03:23:53.237Z,52.58
2019-03-06T03:26:19.201Z,52.45
2019-03-06T03:28:45.119Z,52.73
2019-03-06T03:31:11.144Z,52.56
2019-03-06T03:33:40.490Z,52.65
2019-03-06T03:36:06.405Z,52.42
2019-03-06T03:38:32.282Z,52.56
2019-03-06T03:40:58.138Z,52.59
2019-03-06T03:43:24.119Z,52.31
2019-03-06T03:45:50.353Z,52.25
2019-03-06T03:48:16.216Z,52.18
2019-03-06T03:50:42.127Z,52.50
2019-03-06T03:53:07.976Z,52.79
2019-03-06T03:55:33.814Z,53.01
2019-03-06T03:57:59.702Z,52.72
2019-03-06T04:00:25.641Z,52.89
2019-03-06T04:02:51.843Z,53.06
2019-03-06T04:05:17.898Z,53.00
2019-03-06T04:07:43.944Z,52.87
2019-03-06T04:10:13.008Z,52.87
2019-03-06T04:12:39.116Z,53.30
2019-03-06T04:15:08.248Z,53.30
2019-03-06T04:17:34.323Z,53.70
2019-03-06T04:20:00.517Z,53.64
2019-03-06T04:22:26.689Z,53.49
2019-03-06T04:24:52.546Z,54.00
2019-03-06T04:27:18.427Z,54.32
2019-03-06T04:29:44.464Z,53.46
2019-03-06T04:32:10.508Z,53.44
2019-03-06T04:34:36.696Z,52.77
2019-03-06T04:37:02.751Z,52.77
2019-03-06T04:39:28.697Z,53.07
2019-03-06T04:41:54.528Z,53.21
2019-03-06T04:44:20.630Z,53.64
2019-03-06T04:46:46.483Z,54.29
2019-03-06T04:49:12.349Z,54.29
2019-03-06T04:51:38.295Z,54.54
2019-03-06T04:54:04.287Z,54.34
2019-03-06T04:56:30.147Z,52.58
2019-03-06T04:58:55.986Z,52.58
2019-03-06T05:01:21.838Z,52.72
2019-03-06T05:03:47.931Z,52.71
2019-03-06T05:06:14.072Z,53.22
2019-03-06T05:08:40.047Z,53.01
2019-03-06T05:11:06.058Z,52.82
2019-03-06T05:13:31.911Z,52.62
2019-03-06T05:15:57.732Z,53.17
2019-03-06T05:18:28.568Z,52.92
2019-03-06T05:20:54.628Z,53.24
2019-03-06T05:23:20.702Z,53.33
2019-03-06T05:25:46.594Z,53.22
2019-03-06T05:28:12.442Z,53.10
2019-03-06T05:30:38.261Z,53.53
2019-03-06T05:33:13.461Z,53.49
2019-03-06T05:36:04.020Z,53.48
2019-03-06T05:38:36.773Z,53.48
2019-03-06T05:41:02.807Z,53.82
2019-03-06T05:43:28.983Z,54.36
2019-03-06T05:45:55.148Z,54.36
2019-03-06T05:48:21.253Z,54.21
2019-03-06T05:50:47.306Z,54.59
2019-03-06T05:53:13.540Z,54.65
2019-03-06T05:55:39.399Z,54.51
2019-03-06T05:58:05.626Z,54.65
2019-03-06T06:00:31.506Z,54.65
2019-03-06T06:02:57.453Z,54.79
2019-03-06T06:05:23.403Z,54.78
2019-03-06T06:07:49.393Z,54.94
2019-03-06T06:10:15.533Z,54.97
2019-03-06T06:12:41.568Z,54.88
2019-03-06T06:15:09.449Z,54.97
2019-03-06T06:17:35.308Z,54.97
2019-03-06T06:20:01.408Z,55.01
2019-03-06T06:22:31.951Z,54.93
2019-03-06T06:24:57.873Z,54.55
2019-03-06T06:27:23.952Z,54.49
2019-03-06T06:29:52.766Z,54.43
2019-03-06T06:32:18.723Z,54.25
2019-03-06T06:34:44.638Z,54.20
2019-03-06T06:37:13.886Z,54.25
2019-03-06T06:39:39.857Z,54.02
2019-03-06T06:42:06.077Z,54.02
2019-03-06T06:44:32.055Z,54.03
2019-03-06T06:46:58.073Z,53.37
2019-03-06T06:49:24.027Z,52.62
2019-03-06T06:52:05.240Z,52.48
2019-03-06T06:54:38.231Z,52.34
2019-03-06T06:57:23.097Z,52.38
2019-03-06T07:00:07.867Z,51.79
2019-03-06T07:03:14.528Z,51.07
2019-03-06T07:05:45.216Z,50.27
2019-03-06T07:08:15.924Z,49.72
2019-03-06T07:10:52.718Z,49.14
2019-03-06T07:13:20.697Z,49.10
2019-03-06T07:15:54.416Z,49.00
2019-03-06T07:18:22.269Z,48.73
2019-03-06T07:20:55.846Z,48.73
2019-03-06T07:23:26.719Z,48.25
2019-03-06T07:26:09.518Z,48.23
2019-03-06T07:28:43.370Z,48.10
2019-03-06T07:31:17.452Z,48.01
2019-03-06T07:33:47.952Z,47.95
2019-03-06T07:36:32.490Z,47.66
2019-03-06T07:38:58.484Z,47.63
2019-03-06T07:41:28.946Z,47.75
2019-03-06T07:44:14.991Z,47.29
2019-03-06T07:46:48.541Z,46.65
2019-03-06T07:49:25.202Z,46.77
2019-03-06T07:52:05.048Z,45.85
2019-03-06T07:54:32.785Z,45.54
2019-03-06T07:57:12.646Z,45.25
2019-03-06T07:59:38.691Z,45.14
2019-03-06T08:02:23.844Z,44.41
2019-03-06T08:04:52.114Z,44.21
2019-03-06T08:07:17.947Z,43.99
2019-03-06T08:09:43.991Z,43.46
2019-03-06T08:12:28.581Z,43.53
2019-03-06T08:15:13.177Z,43.54
2019-03-06T08:17:44.116Z,43.62
2019-03-06T08:20:28.468Z,42.57
2019-03-06T08:23:02.204Z,42.26
2019-03-06T08:25:42.418Z,41.50
2019-03-06T08:28:08.413Z,41.13
2019-03-06T08:30:39.192Z,41.52
2019-03-06T08:33:05.161Z,41.97
2019-03-06T08:35:31.899Z,41.76
2019-03-06T08:37:57.740Z,41.42
2019-03-06T08:40:27.742Z,41.21
2019-03-06T08:42:53.697Z,41.24
2019-03-06T08:45:24.287Z,40.72
2019-03-06T08:48:07.416Z,40.59
2019-03-06T08:50:35.237Z,40.29
2019-03-06T08:53:14.957Z,40.93
2019-03-06T08:55:42.939Z,41.20
2019-03-06T08:58:27.862Z,41.11
2019-03-06T09:00:58.549Z,40.92
2019-03-06T09:03:29.919Z,40.68
2019-03-06T09:06:00.490Z,41.83
2019-03-06T09:08:34.069Z,41.25
2019-03-06T09:11:03.059Z,40.87
2019-03-06T09:13:37.514Z,40.75
2019-03-06T09:16:05.290Z,40.68
2019-03-06T09:18:33.119Z,41.42
2019-03-06T09:21:00.975Z,42.05
2019-03-06T09:23:31.468Z,41.52
2019-03-06T09:26:05.358Z,41.48
2019-03-06T09:28:33.489Z,41.18
2019-03-06T09:31:04.310Z,40.95
2019-03-06T09:33:32.138Z,41.21
2019-03-06T09:36:06.401Z,40.66
2019-03-06T09:38:42.973Z,40.96
2019-03-06T09:41:10.986Z,40.61
2019-03-06T09:43:44.553Z,40.60
2019-03-06T09:46:21.183Z,40.95
2019-03-06T09:49:11.153Z,40.48
2019-03-06T09:51:36.975Z,40.89
2019-03-06T09:54:11.607Z,40.62
2019-03-06T09:56:39.533Z,40.70
2019-03-06T09:59:07.507Z,40.41
2019-03-06T10:01:40.060Z,40.14
2019-03-06T10:04:19.763Z,39.97
2019-03-06T10:06:47.928Z,39.92
2019-03-06T10:09:31.982Z,39.91
2019-03-06T10:12:09.839Z,39.04
2019-03-06T10:14:46.644Z,39.05
2019-03-06T10:17:31.022Z,39.12
2019-03-06T10:20:01.528Z,39.08
2019-03-06T10:22:27.372Z,39.08
2019-03-06T10:24:53.403Z,39.79
2019-03-06T10:27:19.445Z,39.56
2019-03-06T10:29:45.494Z,39.87
2019-03-06T10:32:11.624Z,39.96
2019-03-06T10:34:37.606Z,39.83
2019-03-06T10:39:29.404Z,40.48
2019-03-06T10:41:55.303Z,40.51
2019-03-06T10:44:28.770Z,40.04
2019-03-06T10:46:49.111Z,39.43
2019-03-06T10:49:15.108Z,38.90
2019-03-06T10:51:41.078Z,38.94
2019-03-06T10:54:07.110Z,38.69
2019-03-06T10:56:33.289Z,38.91
2019-03-06T10:58:59.826Z,38.93
2019-03-06T11:01:26.089Z,37.52
2019-03-06T11:04:05.868Z,37.40
2019-03-06T11:06:32.013Z,37.17
2019-03-06T11:08:57.986Z,37.40
2019-03-06T11:11:24.062Z,36.42
2019-03-06T11:13:50.312Z,36.27
2019-03-06T11:16:17.925Z,37.04
2019-03-06T11:18:44.294Z,36.51
2019-03-06T11:21:10.396Z,36.24
2019-03-06T11:23:36.341Z,36.27
2019-03-06T11:26:05.273Z,35.87
2019-03-06T11:28:31.458Z,35.23
2019-03-06T11:30:58.824Z,36.13
2019-03-06T11:33:25.383Z,35.20
2019-03-06T11:35:55.401Z,35.71
2019-03-06T11:38:21.820Z,35.45
2019-03-06T11:40:47.866Z,35.88
2019-03-06T11:43:13.952Z,35.23
2019-03-06T11:45:40.613Z,35.81
2019-03-06T11:48:07.362Z,35.98
2019-03-06T11:50:40.636Z,34.80
2019-03-06T11:53:01.312Z,35.28
2019-03-06T11:55:27.812Z,35.08
2019-03-06T11:57:53.915Z,35.04
2019-03-06T12:00:29.599Z,35.36
2019-03-06T12:02:55.473Z,35.91
2019-03-06T12:05:22.306Z,35.28
2019-03-06T12:07:48.610Z,36.20
2019-03-06T12:10:14.946Z,35.94
2019-03-06T12:12:40.897Z,36.00
2019-03-06T12:15:09.453Z,36.29
2019-03-06T12:17:35.588Z,37.04
2019-03-06T12:20:08.210Z,37.30
2019-03-06T12:22:29.574Z,36.56
2019-03-06T12:24:55.552Z,36.77
2019-03-06T12:27:21.493Z,36.25
2019-03-06T12:29:47.527Z,35.87
2019-03-06T12:32:13.549Z,37.38
2019-03-06T12:34:39.579Z,36.77
2019-03-06T12:37:05.624Z,35.17
2019-03-06T12:39:31.618Z,34.47
2019-03-06T12:41:58.917Z,32.46
2019-03-06T12:44:25.035Z,24.64
2019-03-06T12:46:51.017Z,21.80
2019-03-06T12:49:17.130Z,21.22
2019-03-06T12:51:43.066Z,22.67
2019-03-06T12:54:09.126Z,24.21
2019-03-06T12:56:35.314Z,25.30
2019-03-06T12:59:01.254Z,27.08
2019-03-06T13:01:27.208Z,30.06
2019-03-06T13:03:53.181Z,29.07
2019-03-06T13:06:24.504Z,25.85
2019-03-06T13:08:50.779Z,24.00
2019-03-06T13:11:15.600Z,22.20
2019-03-06T13:13:41.548Z,19.38
2019-03-06T13:16:07.716Z,18.57
2019-03-06T13:18:33.651Z,25.01
2019-03-06T13:20:59.628Z,22.41
2019-03-06T13:23:25.741Z,22.41
2019-03-06T13:25:51.874Z,22.76
2019-03-06T13:28:17.959Z,18.78
2019-03-06T13:30:43.949Z,18.52
2019-03-06T13:33:13.699Z,15.36
2019-03-06T13:35:40.295Z,13.88
2019-03-06T13:38:06.362Z,13.42
2019-03-06T13:40:32.404Z,13.01
2019-03-06T13:42:58.636Z,16.37
2019-03-06T13:45:24.680Z,17.36
2019-03-06T13:47:51.142Z,16.64
2019-03-06T13:50:17.265Z,19.50
2019-03-06T13:52:43.207Z,20.67
2019-03-06T13:55:10.720Z,22.20
2019-03-06T13:57:36.653Z,23.53
2019-03-06T14:00:18.000Z,24.65
2019-03-06T14:02:45.878Z,26.43
2019-03-06T14:05:13.245Z,26.04
2019-03-06T14:07:39.236Z,27.47
2019-03-06T14:10:07.490Z,29.00
2019-03-06T14:12:33.550Z,28.08
2019-03-06T14:14:59.578Z,27.72
2019-03-06T14:17:25.726Z,26.85
2019-03-06T14:19:51.887Z,26.86
2019-03-06T14:22:18.970Z,28.82
2019-03-06T14:24:44.991Z,28.82
2019-03-06T14:27:11.343Z,29.75
2019-03-06T14:29:37.383Z,29.79
2019-03-06T14:32:03.594Z,30.11
2019-03-06T14:34:29.434Z,31.58
2019-03-06T14:36:56.008Z,33.28
2019-03-06T14:39:24.594Z,32.93
2019-03-06T14:41:50.760Z,34.00
2019-03-06T14:44:16.853Z,34.02
2019-03-06T14:46:46.652Z,32.24
2019-03-06T14:49:12.722Z,32.63
2019-03-06T14:51:38.575Z,31.36
2019-03-06T14:54:05.624Z,32.74
2019-03-06T14:56:32.075Z,32.16
2019-03-06T14:58:57.925Z,32.07
2019-03-06T15:01:23.860Z,34.13
2019-03-06T15:03:49.786Z,35.17
2019-03-06T15:06:15.732Z,35.30
2019-03-06T15:08:41.798Z,35.45
2019-03-06T15:11:07.815Z,35.38
2019-03-06T15:13:34.299Z,35.53
2019-03-06T15:16:00.333Z,36.15
2019-03-06T15:18:26.366Z,37.21
2019-03-06T15:20:52.233Z,38.35
2019-03-06T15:23:18.272Z,38.90
2019-03-06T15:25:44.219Z,39.08
2019-03-06T15:28:10.306Z,39.10
2019-03-06T15:30:36.518Z,39.04
2019-03-06T15:33:02.696Z,39.45
2019-03-06T15:35:28.734Z,39.65
2019-03-06T15:37:54.897Z,39.64
2019-03-06T15:40:24.138Z,39.71
2019-03-06T15:42:50.555Z,39.83
2019-03-06T15:45:18.093Z,39.95
2019-03-06T15:47:44.355Z,39.81
2019-03-06T15:50:12.544Z,39.97
2019-03-06T15:52:39.186Z,39.69
2019-03-06T15:55:08.871Z,39.65
2019-03-06T15:57:34.890Z,39.72
2019-03-06T16:00:01.272Z,39.72
2019-03-06T16:02:27.451Z,40.08
2019-03-06T16:04:53.513Z,40.35
2019-03-06T16:07:19.777Z,40.08
2019-03-06T16:09:45.867Z,40.42
2019-03-06T16:12:12.400Z,40.60
2019-03-06T16:14:39.047Z,40.29
2019-03-06T16:17:05.159Z,40.22
2019-03-06T16:19:31.035Z,40.52
2019-03-06T16:21:56.904Z,40.64
2019-03-06T16:24:23.260Z,40.79
2019-03-06T16:26:49.186Z,41.15
2019-03-06T16:29:15.393Z,41.35
2019-03-06T16:31:41.810Z,41.83
2019-03-06T16:34:07.885Z,42.18
2019-03-06T16:36:34.024Z,42.52
2019-03-06T16:39:00.105Z,42.77
2019-03-06T16:41:26.416Z,43.12
2019-03-06T16:43:52.861Z,43.37
2019-03-06T16:46:19.247Z,43.35
2019-03-06T16:48:45.684Z,43.62
2019-03-06T16:51:11.875Z,43.50
2019-03-06T16:53:38.150Z,43.86
2019-03-06T16:56:04.340Z,44.09
2019-03-06T16:58:30.582Z,44.45
2019-03-06T17:00:59.757Z,45.07
2019-03-06T17:03:25.749Z,45.19
2019-03-06T17:05:52.024Z,45.16
2019-03-06T17:08:18.204Z,45.45
2019-03-06T17:10:44.300Z,45.93
2019-03-06T17:13:10.368Z,46.14
2019-03-06T17:15:36.477Z,46.57
2019-03-06T17:18:03.030Z,46.76
2019-03-06T17:20:35.767Z,46.25
2019-03-06T17:23:02.168Z,46.30
2019-03-06T17:25:28.513Z,46.73
2019-03-06T17:27:54.582Z,47.05
2019-03-06T17:30:26.472Z,47.33
2019-03-06T17:33:02.802Z,47.45
2019-03-06T17:35:30.686Z,47.25
2019-03-06T17:37:56.851Z,47.09
2019-03-06T17:40:23.191Z,46.78
2019-03-06T17:42:49.334Z,46.32
2019-03-06T17:45:15.872Z,46.18
2019-03-06T17:47:41.901Z,46.24
2019-03-06T17:50:11.862Z,46.13
2019-03-06T17:52:37.803Z,46.14
2019-03-06T17:55:05.415Z,46.09
2019-03-06T17:57:31.307Z,46.11
2019-03-06T17:59:57.281Z,46.41
2019-03-06T18:02:26.395Z,46.15
2019-03-06T18:04:52.415Z,46.34
2019-03-06T18:07:18.437Z,46.54
2019-03-06T18:09:44.646Z,46.89
2019-03-06T18:12:10.624Z,46.27
2019-03-06T18:14:36.672Z,46.20
2019-03-06T18:17:02.730Z,46.22
2019-03-06T18:19:28.735Z,46.25
2019-03-06T18:21:54.841Z,45.95
2019-03-06T18:24:20.810Z,46.15
2019-03-06T18:26:46.893Z,46.16
2019-03-06T18:29:13.278Z,46.33
2019-03-06T18:31:39.246Z,46.09
2019-03-06T18:34:05.338Z,46.13
2019-03-06T18:36:31.542Z,46.03
2019-03-06T18:38:57.380Z,46.13
2019-03-06T18:41:23.370Z,46.24
2019-03-06T18:43:49.379Z,46.06
2019-03-06T18:46:15.362Z,46.17
2019-03-06T18:48:41.234Z,46.28
2019-03-06T18:51:11.103Z,46.09
2019-03-06T18:53:37.214Z,46.54
2019-03-06T18:56:03.335Z,46.53
2019-03-06T18:58:29.359Z,46.66
2019-03-06T19:00:55.416Z,47.30
2019-03-06T19:03:21.550Z,47.52
2019-03-06T19:05:47.663Z,46.91
2019-03-06T19:08:13.721Z,47.07
2019-03-06T19:10:39.780Z,47.08
2019-03-06T19:13:05.905Z,47.12
2019-03-06T19:15:34.695Z,46.96
2019-03-06T19:18:00.915Z,46.98
2019-03-06T19:20:27.101Z,47.68
2019-03-06T19:22:53.439Z,47.72
2019-03-06T19:25:19.737Z,47.71
2019-03-06T19:27:46.029Z,47.90
2019-03-06T19:30:17.045Z,47.94
2019-03-06T19:32:43.109Z,48.39
2019-03-06T19:35:09.279Z,48.06
2019-03-06T19:37:35.171Z,48.26
2019-03-06T19:40:01.325Z,48.24
2019-03-06T19:42:27.289Z,48.04
2019-03-06T19:44:54.112Z,48.27
2019-03-06T19:47:20.358Z,48.17
2019-03-06T19:49:46.509Z,48.47
2019-03-06T19:52:12.777Z,48.84
2019-03-06T19:54:38.626Z,48.65
2019-03-06T19:57:05.020Z,48.42
2019-03-06T19:59:30.916Z,49.13
2019-03-06T20:01:56.978Z,48.67
2019-03-06T20:04:23.190Z,48.47
2019-03-06T20:06:49.420Z,48.63
2019-03-06T20:09:21.411Z,48.81
2019-03-06T20:11:47.555Z,48.98
2019-03-06T20:14:13.509Z,49.18
2019-03-06T20:16:39.443Z,49.18
2019-03-06T20:19:05.567Z,49.53
2019-03-06T20:21:31.554Z,49.96
2019-03-06T20:23:57.460Z,49.95
2019-03-06T20:26:23.726Z,50.09
2019-03-06T20:28:50.065Z,49.83
2019-03-06T20:31:16.279Z,50.00
2019-03-06T20:33:42.408Z,50.21
2019-03-06T20:36:08.751Z,50.08
2019-03-06T20:38:35.109Z,50.50
2019-03-06T20:41:01.374Z,50.42
2019-03-06T20:43:27.935Z,50.53
2019-03-06T20:45:54.585Z,50.29
2019-03-06T20:48:21.234Z,50.23
2019-03-06T20:50:48.005Z,50.50
2019-03-06T20:53:14.746Z,50.55
2019-03-06T20:55:41.461Z,50.14
2019-03-06T20:58:08.469Z,49.96
2019-03-06T21:00:35.469Z,50.17
2019-03-06T21:03:02.553Z,50.11
2019-03-06T21:05:29.261Z,50.45
2019-03-06T21:07:56.378Z,50.76
2019-03-06T21:10:23.363Z,51.18
2019-03-06T21:12:50.487Z,51.34
2019-03-06T21:15:18.472Z,51.59
2019-03-06T21:17:45.345Z,51.20
2019-03-06T21:20:13.545Z,51.46
2019-03-06T21:22:40.257Z,51.32
2019-03-06T21:25:09.449Z,50.95
2019-03-06T21:27:36.121Z,51.13
2019-03-06T21:30:05.520Z,51.02
2019-03-06T21:32:31.845Z,51.39
2019-03-06T21:34:58.129Z,51.49
2019-03-06T21:37:24.695Z,51.42
2019-03-06T21:39:51.396Z,51.65
2019-03-06T21:42:17.648Z,51.75
2019-03-06T21:44:43.833Z,51.49
2019-03-06T21:47:09.981Z,51.26
2019-03-06T21:49:36.080Z,51.64
2019-03-06T21:52:02.758Z,51.90
2019-03-06T21:54:28.669Z,51.44
2019-03-06T21:56:54.915Z,51.48
2019-03-06T21:59:22.303Z,51.50
2019-03-06T22:01:48.387Z,51.56
2019-03-06T22:04:14.369Z,51.34
2019-03-06T22:06:40.238Z,51.36
2019-03-06T22:09:10.659Z,51.50
2019-03-06T22:11:36.494Z,51.48
2019-03-06T22:14:02.657Z,51.34
2019-03-06T22:16:28.653Z,51.52
2019-03-06T22:18:54.706Z,51.63
2019-03-06T22:21:20.791Z,51.50
2019-03-06T22:23:46.611Z,51.82
2019-03-06T22:26:12.844Z,51.49
2019-03-06T22:28:39.018Z,51.62
2019-03-06T22:31:04.984Z,51.49
2019-03-06T22:33:30.989Z,51.44
2019-03-06T22:35:58.813Z,51.41
2019-03-06T22:38:24.805Z,51.81
2019-03-06T22:40:50.834Z,51.63
2019-03-06T22:43:16.846Z,52.31
2019-03-06T22:45:42.818Z,52.23
2019-03-06T22:48:08.767Z,52.49
2019-03-06T22:50:34.734Z,52.50
2019-03-06T22:53:00.669Z,52.52
2019-03-06T22:55:29.830Z,52.59
2019-03-06T22:57:55.885Z,52.15
2019-03-06T23:00:32.503Z,51.98
2019-03-06T23:02:58.758Z,52.10
2019-03-06T23:05:26.763Z,52.32
2019-03-06T23:07:52.963Z,52.47
2019-03-06T23:10:19.149Z,52.38
2019-03-06T23:12:45.291Z,52.63
2019-03-06T23:15:11.247Z,52.38
2019-03-06T23:17:37.109Z,52.65
2019-03-06T23:20:05.335Z,52.68
2019-03-06T23:22:31.511Z,52.42
2019-03-06T23:24:57.359Z,52.32
2019-03-06T23:27:23.408Z,52.29
2019-03-06T23:29:49.500Z,52.03
2019-03-06T23:32:15.456Z,52.11
2019-03-06T23:34:41.283Z,52.05
2019-03-06T23:37:07.545Z,52.18
2019-03-06T23:39:33.498Z,52.39
2019-03-06T23:41:59.377Z,52.92
2019-03-06T23:44:25.315Z,52.68
2019-03-06T23:46:51.274Z,52.55
2019-03-06T23:49:17.284Z,52.55
2019-03-06T23:51:45.159Z,52.82
2019-03-06T23:54:10.989Z,52.97
2019-03-06T23:56:37.127Z,53.08
2019-03-06T23:59:03.257Z,53.38
